Time;durP1;ratioP1;P1;durP2;ratioP2;P2;SDS_P1;SDS_P2;PMS_P1;PMS_P2;Temp;Humidity;BMP_temperature;BMP_pressure;BME280_temperature;BME280_humidity;BME280_pressure;Samples;Min_cycle;Max_cycle;Signal;HPM_P1;HPM_P2
2022/10/24 00:01:17;;;;;;;2.63;1.57;;;17.60;86.50;;;19.96;61.69;100524.31;5056195;28;20213;-63
2022/10/24 00:03:44;;;;;;;4.70;2.10;;;17.60;86.40;;;19.95;61.87;100518.13;5056623;28;20557;-62
2022/10/24 00:06:12;;;;;;;2.50;1.80;;;17.60;86.30;;;19.97;61.74;100517.88;5056209;28;20229;-62
2022/10/24 00:08:42;;;;;;;1.83;1.73;;;17.60;86.20;;;19.96;61.97;100519.78;5056440;28;20187;-63
2022/10/24 00:11:14;;;;;;;2.90;2.10;;;17.60;86.10;;;19.91;61.60;100519.69;5056447;28;20233;-63
2022/10/24 00:13:42;;;;;;;2.20;1.97;;;17.60;86.00;;;19.93;62.02;100525.59;5056189;28;20197;-62
2022/10/24 00:16:10;;;;;;;5.83;2.20;;;17.60;86.00;;;19.86;61.88;100522.25;5075474;28;20220;-63
2022/10/24 00:18:37;;;;;;;2.43;1.87;;;17.60;86.00;;;19.83;62.56;100525.41;5075967;28;20205;-63
2022/10/24 00:21:04;;;;;;;2.90;1.90;;;17.60;86.00;;;19.82;61.96;100537.16;5074499;28;20209;-62
2022/10/24 00:23:31;;;;;;;4.70;2.10;;;17.60;86.00;;;19.79;62.59;100542.97;5076161;28;20197;-60
2022/10/24 00:26:00;;;;;;;6.73;1.93;;;17.60;86.10;;;19.85;62.18;100534.00;5072778;28;20255;-64
2022/10/24 00:28:28;;;;;;;4.53;2.17;;;17.60;86.00;;;19.83;62.49;100536.09;5062829;28;20213;-63
2022/10/24 00:30:56;;;;;;;4.27;1.90;;;17.60;86.00;;;19.81;62.39;100527.50;5069896;28;20214;-60
2022/10/24 00:33:23;;;;;;;5.57;1.90;;;17.60;86.00;;;19.84;61.99;100543.06;5068651;28;20225;-63
2022/10/24 00:35:51;;;;;;;2.73;1.53;;;17.60;86.00;;;19.87;62.40;100533.78;5055535;28;20190;-64
2022/10/24 00:38:18;;;;;;;2.77;2.00;;;17.60;86.80;;;19.83;62.08;100532.59;5055550;28;20244;-63
2022/10/24 00:40:45;;;;;;;3.87;1.80;;;17.60;86.10;;;19.84;62.44;100534.25;5055618;28;20213;-62
2022/10/24 00:43:17;;;;;;;6.87;1.87;;;17.60;86.00;;;19.88;62.00;100528.16;5055591;28;20556;-62
2022/10/24 00:45:48;;;;;;;5.07;1.80;;;17.60;86.00;;;19.91;61.76;100532.22;5053917;28;20189;-63
2022/10/24 00:48:25;;;;;;;3.90;1.90;;;17.60;86.00;;;19.90;61.49;100526.06;5055510;28;20201;-61
2022/10/24 00:50:59;;;;;;;3.63;1.83;;;17.60;86.00;;;19.90;61.61;100522.56;5055572;28;20631;-64
2022/10/24 00:53:31;;;;;;;3.50;1.80;;;17.60;86.00;;;19.87;61.68;100518.53;5055615;28;20214;-64
2022/10/24 00:56:02;;;;;;;3.53;1.60;;;17.60;86.00;;;19.92;61.97;100518.63;5054070;28;20186;-63
2022/10/24 00:58:33;;;;;;;3.37;1.97;;;17.60;86.00;;;19.90;61.69;100522.56;5055816;28;20197;-62
2022/10/24 01:01:03;;;;;;;3.53;1.60;;;17.50;86.00;;;19.90;61.66;100526.06;5056384;28;20210;-63
2022/10/24 01:03:31;;;;;;;3.30;2.00;;;17.50;86.00;;;19.95;61.50;100528.00;5056597;28;20626;-63
2022/10/24 01:06:28;;;;;;;2.90;1.63;;;17.60;86.20;;;19.94;61.69;100524.56;5059399;28;20193;-61
2022/10/24 01:09:10;;;;;;;4.67;2.07;;;17.60;86.00;;;19.91;61.79;100522.34;5075570;28;20189;-63
2022/10/24 01:11:57;;;;;;;4.47;2.37;;;17.60;86.00;;;19.92;61.76;100523.97;5072977;28;20223;-63
2022/10/24 01:14:41;;;;;;;5.07;2.27;;;17.60;86.00;;;19.92;61.62;100520.50;5075653;28;20193;-62
2022/10/24 01:17:18;;;;;;;2.53;1.70;;;17.60;86.00;;;19.93;61.66;100514.91;5072759;28;20200;-62
2022/10/24 01:20:24;;;;;;;2.67;1.73;;;17.60;85.90;;;19.88;61.38;100517.47;5073871;28;20193;-64
2022/10/24 01:23:11;;;;;;;4.83;1.77;;;17.60;86.00;;;19.88;61.85;100512.16;5054700;28;20220;-64
2022/10/24 01:25:58;;;;;;;2.63;1.97;;;17.60;85.80;;;19.87;61.83;100518.53;5054091;28;20185;-63
2022/10/24 01:28:31;;;;;;;3.77;1.87;;;17.60;85.90;;;19.87;61.62;100507.84;5060724;28;20604;-63
2022/10/24 01:31:09;;;;;;;2.33;1.80;;;17.60;85.80;;;19.85;61.26;100517.97;5062935;28;20725;-63
2022/10/24 01:33:45;;;;;;;4.97;2.10;;;17.50;85.80;;;19.85;61.81;100501.16;5055862;28;20224;-62
2022/10/24 01:36:19;;;;;;;4.03;2.33;;;17.50;85.80;;;19.82;61.53;100505.09;5062000;28;20189;-62
2022/10/24 01:38:55;;;;;;;4.93;2.17;;;17.50;85.90;;;19.81;61.58;100498.13;5067420;28;20193;-62
2022/10/24 01:41:27;;;;;;;3.50;2.03;;;17.50;85.90;;;19.81;62.08;100497.31;5054332;28;20209;-63
2022/10/24 01:44:04;;;;;;;3.00;1.87;;;17.50;85.90;;;19.78;61.50;100495.94;5054919;28;20218;-62
2022/10/24 01:46:39;;;;;;;2.93;1.97;;;17.40;85.80;;;19.77;61.40;100499.66;5061685;28;20223;-64
2022/10/24 01:49:13;;;;;;;1.50;1.40;;;17.40;85.90;;;19.76;61.99;100503.38;5055353;28;20197;-63
2022/10/24 01:51:42;;;;;;;5.07;1.97;;;17.40;86.00;;;19.74;61.98;100496.66;5054086;28;20220;-63
2022/10/24 01:54:11;;;;;;;5.10;2.17;;;17.40;86.00;;;19.74;62.08;100497.47;5054313;28;20202;-63
2022/10/24 01:56:38;;;;;;;5.60;2.53;;;17.40;86.10;;;19.71;62.15;100484.59;5064567;28;20730;-63
2022/10/24 01:59:08;;;;;;;2.93;1.70;;;17.30;86.10;;;19.72;62.10;100485.41;5074643;28;20540;-64
2022/10/24 02:01:38;;;;;;;1.73;1.63;;;17.40;86.20;;;19.74;62.08;100477.97;5068070;28;20213;-63
2022/10/24 02:04:11;;;;;;;5.03;1.80;;;17.40;86.20;;;19.74;62.07;100483.28;5054618;28;20291;-63
2022/10/24 02:06:41;;;;;;;3.40;1.90;;;17.30;86.00;;;19.75;61.33;100483.06;5054109;28;20244;-62
2022/10/24 02:09:14;;;;;;;2.90;1.93;;;17.30;86.00;;;19.73;61.43;100476.34;5055230;28;20243;-63
2022/10/24 02:11:44;;;;;;;2.93;1.70;;;17.30;86.10;;;19.68;61.86;100479.75;5074036;28;20283;-63
2022/10/24 02:14:19;;;;;;;3.07;1.80;;;17.30;86.10;;;19.68;61.99;100474.41;5074052;28;20189;-63
2022/10/24 02:16:48;;;;;;;3.57;1.67;;;17.30;86.10;;;19.72;61.57;100475.53;5063973;28;20200;-63
2022/10/24 02:19:17;;;;;;;5.23;2.13;;;17.30;86.10;;;19.73;61.43;100471.81;5071461;28;20208;-63
2022/10/24 02:21:54;;;;;;;4.50;1.97;;;17.30;86.00;;;19.74;61.41;100468.09;5073621;28;20220;-64
2022/10/24 02:24:28;;;;;;;2.40;1.50;;;17.30;86.10;;;19.77;61.17;100454.25;5073201;28;20665;-63
2022/10/24 02:27:03;;;;;;;4.90;2.17;;;17.30;86.00;;;19.81;61.28;100458.06;5071776;28;20239;-63
2022/10/24 02:29:41;;;;;;;6.67;2.20;;;17.30;86.00;;;19.77;61.02;100448.91;5072824;28;20204;-63
2022/10/24 02:32:15;;;;;;;2.97;1.97;;;17.30;85.90;;;19.78;61.54;100447.84;5065932;28;20214;-63
2022/10/24 02:34:45;;;;;;;5.23;2.37;;;17.30;85.90;;;19.79;61.35;100448.66;5070934;28;20611;-63
2022/10/24 02:37:16;;;;;;;2.73;1.90;;;17.30;85.80;;;19.76;60.93;100438.44;5065939;28;20668;-61
2022/10/24 02:39:46;;;;;;;3.90;1.70;;;17.30;85.70;;;19.77;60.92;100446.25;5058332;28;20650;-60
2022/10/24 02:42:15;;;;;;;4.40;1.80;;;17.30;85.70;;;19.80;61.46;100445.75;5053169;28;20604;-62
2022/10/24 02:44:47;;;;;;;3.93;2.03;;;17.30;85.80;;;19.78;61.49;100436.38;5058261;28;20182;-62
2022/10/24 02:47:18;;;;;;;3.63;1.80;;;17.30;85.80;;;19.78;60.95;100437.16;5071870;28;20227;-64
2022/10/24 02:49:45;;;;;;;2.67;1.90;;;17.30;85.80;;;19.77;60.95;100435.56;5073290;28;20181;-63
2022/10/24 02:52:13;;;;;;;6.27;2.03;;;17.30;85.80;;;19.75;61.06;100431.50;5053089;28;20267;-64
2022/10/24 02:54:40;;;;;;;3.17;1.80;;;17.30;85.70;;;19.72;60.86;100427.47;5053411;28;20248;-64
2022/10/24 02:57:07;;;;;;;2.90;1.77;;;17.30;85.70;;;19.72;61.07;100426.66;5055022;28;21774;-62
2022/10/24 02:59:34;;;;;;;4.87;2.50;;;17.20;85.60;;;19.71;61.19;100430.34;5065530;28;20197;-62
2022/10/24 03:02:01;;;;;;;4.73;2.20;;;17.20;85.60;;;19.69;60.94;100425.25;5052721;28;20221;-63
2022/10/24 03:04:30;;;;;;;3.57;1.93;;;17.20;85.60;;;19.67;61.37;100418.53;5057623;28;20185;-63
2022/10/24 03:06:57;;;;;;;4.13;1.97;;;17.20;85.60;;;19.62;61.29;100415.78;5071416;28;20200;-63
2022/10/24 03:09:24;;;;;;;4.03;2.13;;;17.20;85.60;;;19.59;60.95;100411.72;5072164;28;20197;-63
2022/10/24 03:11:51;;;;;;;2.77;2.00;;;17.10;85.60;;;19.59;61.32;100403.72;5072764;28;20209;-64
2022/10/24 03:14:17;;;;;;;3.80;2.20;;;17.10;85.80;;;19.56;61.40;100407.69;5071122;28;20201;-63
2022/10/24 03:16:44;;;;;;;3.73;2.20;;;17.10;85.80;;;19.53;61.57;100407.38;5072228;28;20204;-63
2022/10/24 03:19:11;;;;;;;3.53;2.17;;;17.10;85.80;;;19.50;61.49;100397.16;5062202;28;20247;-63
2022/10/24 03:21:41;;;;;;;4.73;2.27;;;17.00;85.70;;;19.46;61.11;100417.41;5052711;28;20693;-64
2022/10/24 03:24:08;;;;;;;2.50;2.00;;;17.00;85.80;;;19.41;61.63;100414.63;5052309;28;20658;-63
2022/10/24 03:26:35;;;;;;;3.97;2.47;;;16.90;85.80;;;19.35;61.59;100416.34;5052640;28;20190;-64
2022/10/24 03:29:03;;;;;;;3.90;2.27;;;16.90;85.90;;;19.31;61.54;100415.22;5056863;28;20194;-63
2022/10/24 03:31:30;;;;;;;11.10;2.33;;;16.90;86.00;;;19.22;62.00;100411.34;5053167;28;20236;-64
2022/10/24 03:33:58;;;;;;;7.60;2.47;;;16.80;86.20;;;19.19;62.30;100400.31;5072187;28;20213;-64
2022/10/24 03:36:25;;;;;;;4.80;2.27;;;16.80;86.30;;;19.18;61.88;100396.03;5072701;28;20193;-61
2022/10/24 03:38:53;;;;;;;6.20;2.63;;;16.80;86.40;;;19.20;61.88;100392.09;5068905;28;20197;-63
2022/10/24 03:41:20;;;;;;;4.63;2.50;;;16.70;86.50;;;19.20;61.83;100380.59;5072541;28;20213;-63
2022/10/24 03:43:47;;;;;;;4.10;2.27;;;16.70;86.40;;;19.22;61.80;100391.84;5072921;28;20185;-63
2022/10/24 03:46:14;;;;;;;4.77;2.00;;;16.70;86.50;;;19.23;62.13;100393.47;5066170;28;20315;-63
2022/10/24 03:48:41;;;;;;;6.03;2.37;;;16.70;86.50;;;19.20;61.90;100388.59;5064249;28;20206;-62
2022/10/24 03:51:08;;;;;;;3.67;2.17;;;16.70;86.50;;;19.18;61.94;100393.38;5052846;28;20694;-65
2022/10/24 03:53:35;;;;;;;3.87;2.57;;;16.70;86.50;;;19.14;61.93;100389.53;5069318;28;20225;-64
2022/10/24 03:56:05;;;;;;;7.90;2.30;;;16.70;86.50;;;19.12;61.89;100394.31;5055435;28;20209;-63
2022/10/24 03:58:32;;;;;;;8.23;2.60;;;16.70;86.50;;;19.11;62.09;100398.03;5052787;28;20274;-63
2022/10/24 04:00:59;;;;;;;6.30;2.60;;;16.70;86.50;;;19.12;62.05;100394.31;5056863;28;20213;-63
2022/10/24 04:03:27;;;;;;;4.73;2.50;;;16.70;86.50;;;19.14;62.22;100386.88;5068773;28;20201;-64
2022/10/24 04:05:54;;;;;;;6.57;2.10;;;16.70;86.50;;;19.15;61.94;100392.00;5071149;28;20700;-64
2022/10/24 04:08:21;;;;;;;6.60;2.90;;;16.70;86.50;;;19.13;61.62;100385.25;5071829;28;20189;-64
2022/10/24 04:10:49;;;;;;;4.00;2.43;;;16.70;86.50;;;19.11;61.93;100387.38;5052104;28;20280;-61
2022/10/24 04:13:17;;;;;;;3.50;2.53;;;16.70;86.40;;;19.11;61.74;100387.38;5052234;28;20213;-64
2022/10/24 04:15:44;;;;;;;5.90;2.70;;;16.70;86.30;;;19.11;61.80;100384.69;5051750;28;20212;-64
2022/10/24 04:18:11;;;;;;;9.30;3.20;;;16.70;86.30;;;19.11;62.01;100385.47;5052362;28;20190;-63
2022/10/24 04:20:38;;;;;;;6.87;2.70;;;16.70;86.20;;;19.10;61.88;100396.41;5051624;28;20697;-63
2022/10/24 04:23:05;;;;;;;9.07;3.43;;;16.70;86.20;;;19.06;62.00;100392.59;5052222;28;20190;-63
2022/10/24 04:25:32;;;;;;;6.77;2.57;;;16.60;86.00;;;19.05;61.82;100393.63;5056528;28;20198;-63
2022/10/24 04:27:59;;;;;;;6.97;2.70;;;16.70;86.00;;;19.03;61.80;100391.22;5055009;28;20196;-63
2022/10/24 04:30:28;;;;;;;7.70;3.23;;;16.60;85.90;;;19.00;61.96;100389.03;5071436;28;20197;-62
2022/10/24 04:32:56;;;;;;;4.13;2.50;;;16.70;85.80;;;18.97;62.03;100396.72;5068242;28;20266;-63
2022/10/24 04:35:24;;;;;;;4.07;2.17;;;16.60;85.70;;;18.94;62.17;100398.78;5074694;28;20193;-63
2022/10/24 04:37:51;;;;;;;7.17;2.70;;;16.60;85.60;;;18.92;62.13;100392.88;5075456;28;20200;-62
2022/10/24 04:40:19;;;;;;;2.60;2.40;;;16.60;85.50;;;18.90;61.98;100394.97;5071154;28;20189;-62
2022/10/24 04:42:45;;;;;;;4.60;2.53;;;16.60;85.50;;;18.92;61.73;100394.75;5068955;28;20205;-62
2022/10/24 04:45:13;;;;;;;4.43;2.33;;;16.60;85.40;;;18.90;61.65;100380.81;5073933;28;20661;-62
2022/10/24 04:47:41;;;;;;;3.77;2.70;;;16.60;85.30;;;18.90;61.93;100381.63;5075396;28;20247;-63
2022/10/24 04:50:09;;;;;;;7.70;2.87;;;16.60;85.20;;;18.87;61.88;100387.44;5061785;28;20515;-63
2022/10/24 04:52:36;;;;;;;7.33;2.70;;;16.60;85.20;;;18.90;61.46;100391.50;5055180;28;20272;-63
2022/10/24 04:55:04;;;;;;;4.90;2.90;;;16.60;85.00;;;18.90;61.62;100394.97;5060596;28;20197;-65
2022/10/24 04:57:31;;;;;;;7.17;2.77;;;16.60;85.00;;;18.91;61.44;100390.44;5059052;28;20600;-63
2022/10/24 04:59:58;;;;;;;4.63;2.97;;;16.60;85.00;;;18.94;61.18;100388.09;5074043;28;20683;-61
2022/10/24 05:02:25;;;;;;;5.47;2.87;;;16.60;84.80;;;18.97;61.07;100394.03;5074938;28;20233;-63
2022/10/24 05:04:53;;;;;;;5.90;2.53;;;16.60;84.70;;;18.99;61.20;100394.59;5074478;28;20276;-63
2022/10/24 05:07:20;;;;;;;7.77;2.70;;;16.70;84.70;;;19.03;60.77;100395.75;5070832;28;20756;-62
2022/10/24 05:09:47;;;;;;;7.73;3.10;;;16.60;84.60;;;19.05;60.93;100401.66;5057261;28;20221;-62
2022/10/24 05:12:14;;;;;;;4.60;2.63;;;16.60;84.40;;;19.04;60.81;100392.03;5075785;28;20239;-63
2022/10/24 05:14:41;;;;;;;7.97;2.90;;;16.60;84.30;;;19.04;60.85;100392.03;5073723;28;20286;-63
2022/10/24 05:17:08;;;;;;;6.20;2.67;;;16.60;84.20;;;19.06;60.77;100395.28;5057302;28;20201;-62
2022/10/24 05:19:36;;;;;;;7.67;2.70;;;16.60;84.30;;;19.07;60.16;100396.88;5075306;28;20253;-63
2022/10/24 05:22:04;;;;;;;5.10;2.80;;;16.60;84.10;;;19.07;60.25;100396.88;5075259;28;20212;-63
2022/10/24 05:24:36;;;;;;;7.23;2.73;;;16.60;84.10;;;19.07;60.34;100399.53;5066187;28;20539;-62
2022/10/24 05:27:03;;;;;;;6.70;2.70;;;16.60;84.10;;;19.08;60.32;100398.50;5073672;28;20193;-62
2022/10/24 05:29:30;;;;;;;6.00;2.70;;;16.60;84.10;;;19.11;60.23;100398.81;5070432;28;20762;-64
2022/10/24 05:31:57;;;;;;;6.43;2.97;;;16.60;84.10;;;19.14;60.45;100397.53;5073887;28;20342;-64
2022/10/24 05:34:25;;;;;;;5.23;2.43;;;16.60;84.10;;;19.17;60.03;100397.06;5074418;28;20217;-64
2022/10/24 05:36:53;;;;;;;7.03;3.23;;;16.60;84.10;;;19.16;59.87;100385.59;5073749;28;20363;-64
2022/10/24 05:39:21;;;;;;;15.57;3.33;;;16.60;84.20;;;19.16;59.89;100390.13;5053859;28;20204;-64
2022/10/24 05:41:48;;;;;;;6.83;2.67;;;16.60;84.20;;;19.13;59.89;100390.59;5054420;28;20599;-62
2022/10/24 05:44:20;;;;;;;6.97;2.90;;;16.60;84.10;;;19.08;59.84;100383.31;5054765;28;20182;-63
2022/10/24 05:46:47;;;;;;;5.23;2.77;;;16.60;84.10;;;19.06;60.34;100379.25;5054424;28;20252;-63
2022/10/24 05:49:14;;;;;;;9.37;3.17;;;16.50;84.10;;;19.06;60.24;100379.25;5054410;28;20263;-65
2022/10/24 05:51:41;;;;;;;6.60;3.17;;;16.50;84.00;;;19.04;60.11;100371.47;5053762;28;20205;-62
2022/10/24 05:54:08;;;;;;;6.87;2.93;;;16.50;84.10;;;19.06;60.14;100379.25;5055481;28;20217;-62
2022/10/24 05:56:36;;;;;;;9.77;3.60;;;16.50;84.10;;;19.05;60.14;100372.28;5072970;28;20201;-63
2022/10/24 05:59:03;;;;;;;6.43;3.33;;;16.50;84.00;;;19.01;59.91;100371.97;5073483;28;20190;-62
2022/10/24 06:01:30;;;;;;;17.23;4.33;;;16.50;83.90;;;18.98;60.08;100374.31;5073439;28;20221;-64
2022/10/24 06:03:58;;;;;;;7.93;3.87;;;16.50;83.90;;;18.96;60.17;100374.56;5074743;28;20177;-63
2022/10/24 06:06:25;;;;;;;12.20;3.97;;;16.50;83.90;;;18.94;59.97;100376.66;5065422;28;20205;-65
2022/10/24 06:08:52;;;;;;;7.13;3.23;;;16.50;83.90;;;18.92;60.41;100379.53;5074173;28;20219;-61
2022/10/24 06:11:19;;;;;;;12.83;3.73;;;16.50;83.80;;;18.93;60.22;100385.69;5075562;28;20223;-64
2022/10/24 06:13:52;;;;;;;9.77;3.93;;;16.50;83.80;;;18.93;59.90;100383.00;5076029;28;20215;-64
2022/10/24 06:16:19;;;;;;;15.07;5.13;;;16.40;83.70;;;18.87;59.84;100379.44;5075325;28;20607;-64
2022/10/24 06:18:46;;;;;;;9.70;4.40;;;16.40;83.60;;;18.89;60.15;100381.88;5061520;28;20308;-64
2022/10/24 06:21:15;;;;;;;18.80;5.37;;;16.50;83.70;;;18.88;59.97;100389.06;5066055;28;20581;-63
2022/10/24 06:23:42;;;;;;;15.90;4.47;;;16.40;83.40;;;18.87;60.32;100392.78;5075141;28;20181;-64
2022/10/24 06:26:10;;;;;;;14.03;4.67;;;16.40;83.30;;;18.91;59.96;100393.13;5061318;28;20562;-63
2022/10/24 06:28:37;;;;;;;11.83;4.70;;;16.50;83.40;;;18.91;59.92;100385.94;5066305;28;20555;-64
2022/10/24 06:31:07;;;;;;;16.47;5.23;;;16.50;83.30;;;18.93;59.85;100388.34;5074071;28;20201;-63
2022/10/24 06:33:34;;;;;;;9.93;4.40;;;16.50;83.20;;;18.96;59.43;100389.75;5074117;28;20213;-62
2022/10/24 06:36:05;;;;;;;9.93;4.37;;;16.50;83.20;;;18.96;59.51;100395.06;5055488;28;20565;-64
2022/10/24 06:38:32;;;;;;;12.77;5.07;;;16.50;83.00;;;18.98;59.51;100395.63;5054014;28;20668;-63
2022/10/24 06:41:05;;;;;;;14.70;4.77;;;16.50;83.00;;;18.97;59.43;100396.72;5053925;28;20214;-63
2022/10/24 06:43:32;;;;;;;7.80;3.80;;;16.50;83.00;;;18.97;59.42;100402.03;5054522;28;20569;-64
2022/10/24 06:46:06;;;;;;;9.50;4.40;;;16.50;82.80;;;18.96;59.24;100401.22;5060932;28;20197;-64
2022/10/24 06:48:33;;;;;;;10.43;5.03;;;16.50;82.80;;;18.98;59.22;100398.31;5060375;28;20193;-63
2022/10/24 06:51:00;;;;;;;13.60;4.83;;;16.50;82.80;;;19.00;59.38;100397.03;5073746;28;20216;-61
2022/10/24 06:53:28;;;;;;;11.93;4.13;;;16.50;82.80;;;19.00;59.24;100397.03;5072927;28;20216;-64
2022/10/24 06:55:59;;;;;;;13.50;4.90;;;16.50;82.60;;;19.02;59.05;100399.47;5073291;28;20197;-64
2022/10/24 06:58:30;;;;;;;11.40;4.43;;;16.50;82.60;;;19.04;58.95;100402.72;5072741;28;20189;-62
2022/10/24 07:00:57;;;;;;;16.77;5.63;;;16.50;82.50;;;19.06;58.68;100405.94;5073194;28;20213;-63
2022/10/24 07:03:26;;;;;;;19.87;6.07;;;16.50;82.40;;;19.09;58.80;100413.47;5059640;28;20677;-64
2022/10/24 07:05:53;;;;;;;15.33;4.80;;;16.50;82.30;;;19.13;58.71;100419.94;5060390;28;20185;-63
2022/10/24 07:08:20;;;;;;;12.03;4.43;;;16.60;82.30;;;19.18;58.78;100422.72;5060420;28;20201;-62
2022/10/24 07:10:47;;;;;;;17.67;4.20;;;16.60;82.20;;;19.23;58.29;100425.50;5053156;28;20555;-63
2022/10/24 07:13:14;;;;;;;7.13;3.50;;;16.60;82.20;;;19.29;58.41;100427.19;5053260;28;20570;-64
2022/10/24 07:15:41;;;;;;;10.33;3.87;;;16.70;82.20;;;19.33;58.32;100433.66;5058193;28;20241;-63
2022/10/24 07:18:15;;;;;;;23.63;5.50;;;16.70;81.90;;;19.33;58.25;100433.66;5055459;28;20240;-64
2022/10/24 07:20:43;;;;;;;14.33;4.43;;;16.70;81.50;;;19.37;57.78;100434.84;5068482;28;20216;-63
2022/10/24 07:23:10;;;;;;;13.87;4.70;;;16.80;81.60;;;19.42;58.03;100442.97;5073104;28;20199;-61
2022/10/24 07:25:38;;;;;;;10.47;4.30;;;16.80;81.40;;;19.47;57.63;100443.03;5068268;28;20197;-62
2022/10/24 07:28:06;;;;;;;11.63;3.57;;;16.90;81.30;;;19.52;57.32;100445.78;5063579;28;20204;-62
2022/10/24 07:30:34;;;;;;;8.23;3.53;;;16.90;81.00;;;19.53;57.79;100442.09;5072287;28;20197;-63
2022/10/24 07:33:01;;;;;;;5.20;2.73;;;17.00;80.70;;;19.62;57.06;100443.31;5072177;28;20530;-64
2022/10/24 07:35:28;;;;;;;9.23;2.70;;;17.10;80.50;;;19.72;57.04;100450.69;5070309;28;20263;-63
2022/10/24 07:37:56;;;;;;;5.57;2.63;;;17.20;81.10;;;19.85;56.62;100448.50;5053673;28;20197;-61
2022/10/24 07:40:23;;;;;;;3.60;2.40;;;17.30;80.10;;;19.92;56.74;100453.72;5052337;28;20267;-64
2022/10/24 07:42:50;;;;;;;4.57;2.80;;;17.40;79.70;;;20.02;56.42;100454.66;5053683;28;20193;-64
2022/10/24 07:45:17;;;;;;;14.93;3.40;;;17.40;79.50;;;20.08;55.96;100448.38;5051173;28;20197;-64
2022/10/24 07:47:44;;;;;;;4.60;2.60;;;17.50;79.10;;;20.13;55.89;100451.09;5056301;28;20189;-64
2022/10/24 07:50:14;;;;;;;7.87;2.73;;;17.60;78.60;;;20.23;55.79;100453.94;5052960;28;20270;-64
2022/10/24 07:52:41;;;;;;;5.10;2.10;;;17.70;78.20;;;20.33;55.30;100457.81;5052283;28;20229;-64
2022/10/24 07:55:10;;;;;;;10.77;2.53;;;17.80;77.70;;;20.36;55.12;100454.66;5053746;28;20213;-65
2022/10/24 07:57:37;;;;;;;6.13;2.60;;;17.90;77.30;;;20.39;54.77;100448.84;5053273;28;20670;-62
2022/10/24 08:00:05;;;;;;;4.07;2.90;;;17.90;76.80;;;20.47;54.38;100451.06;5054123;28;20194;-63
2022/10/24 08:02:33;;;;;;;8.63;2.33;;;18.00;76.70;;;20.51;54.15;100454.91;5053543;28;20316;-63
2022/10/24 08:05:00;;;;;;;6.27;2.10;;;18.10;76.40;;;20.64;54.04;100446.50;5055172;28;20182;-63
2022/10/24 08:07:28;;;;;;;7.17;2.77;;;18.10;76.20;;;20.70;54.25;100450.88;5055993;28;20193;-63
2022/10/24 08:09:55;;;;;;;7.47;2.40;;;18.20;75.90;;;20.74;53.65;100449.31;5056351;28;20224;-64
2022/10/24 08:12:24;;;;;;;4.83;2.23;;;18.30;75.60;;;20.80;53.47;100451.00;5056913;28;20218;-64
2022/10/24 08:14:52;;;;;;;6.23;2.80;;;18.40;75.60;;;20.87;53.82;100448.97;5058152;28;20567;-65
2022/10/24 08:17:20;;;;;;;10.93;2.90;;;18.40;75.50;;;20.96;53.80;100444.78;5056326;28;20194;-63
2022/10/24 08:19:47;;;;;;;7.60;2.77;;;18.40;75.40;;;21.06;52.87;100436.09;5056283;28;20724;-63
2022/10/24 08:22:15;;;;;;;10.13;3.30;;;18.50;75.20;;;21.13;53.03;100432.19;5055475;28;20217;-63
2022/10/24 08:24:43;;;;;;;8.80;3.00;;;18.50;74.90;;;21.13;52.32;100434.84;5055572;28;20576;-62
2022/10/24 08:27:10;;;;;;;9.13;3.17;;;18.60;74.60;;;21.13;52.89;100439.38;5055142;28;21073;-63
2022/10/24 08:29:39;;;;;;;7.83;3.33;;;18.60;74.40;;;21.18;52.52;100442.91;5059972;28;20217;-62
2022/10/24 08:32:06;;;;;;;6.27;2.73;;;18.60;74.40;;;21.22;52.66;100438.69;5069912;28;20654;-62
2022/10/24 08:34:34;;;;;;;6.67;2.73;;;18.70;74.50;;;21.27;52.73;100437.94;5064517;28;20214;-63
2022/10/24 08:37:01;;;;;;;12.57;2.60;;;18.70;74.30;;;21.36;52.90;100434.56;5061656;28;20196;-64
2022/10/24 08:39:28;;;;;;;12.30;3.27;;;18.80;74.20;;;21.40;52.07;100422.28;5063804;28;20194;-65
2022/10/24 08:42:00;;;;;;;7.50;3.10;;;18.90;73.50;;;21.51;51.72;100418.63;5060036;28;20301;-62
2022/10/24 08:44:31;;;;;;;4.73;3.10;;;18.90;73.30;;;21.67;51.66;100421.44;5074190;28;20205;-64
2022/10/24 08:47:11;;;;;;;5.80;2.10;;;19.10;73.40;;;21.98;50.73;100426.00;5067812;28;20244;-65
2022/10/24 08:49:46;;;;;;;6.77;2.13;;;19.20;72.80;;;22.51;50.05;100425.81;5067644;28;20212;-63
2022/10/24 08:52:29;;;;;;;7.30;2.77;;;19.50;72.90;;;22.90;48.31;100424.41;5061438;28;20254;-64
2022/10/24 08:55:02;;;;;;;3.77;1.80;;;19.70;71.00;;;23.25;48.21;100426.38;5061280;28;20206;-64
2022/10/24 08:57:34;;;;;;;2.97;1.90;;;20.00;70.70;;;23.45;47.04;100414.91;5060549;28;20271;-65
2022/10/24 09:00:12;;;;;;;6.43;2.30;;;20.30;69.10;;;23.53;46.77;100419.78;5066298;28;20626;-65
2022/10/24 09:02:45;;;;;;;4.17;1.47;;;20.50;68.40;;;23.69;47.11;100410.63;5062677;28;20213;-65
2022/10/24 09:05:22;;;;;;;2.80;1.70;;;20.80;68.30;;;23.72;45.90;100415.47;5067883;28;20201;-64
2022/10/24 09:08:00;;;;;;;4.00;1.70;;;20.80;66.70;;;23.82;46.02;100412.75;5060209;28;20201;-65
2022/10/24 09:10:42;;;;;;;3.93;1.87;;;21.00;66.60;;;24.04;45.41;100418.69;5068284;28;20202;-65
2022/10/24 09:13:13;;;;;;;7.00;1.87;;;21.00;65.90;;;24.50;44.70;100411.34;5061708;28;20229;-64
2022/10/24 09:15:44;;;;;;;5.00;2.03;;;21.20;66.50;;;25.16;42.81;100413.75;5055560;28;20210;-64
2022/10/24 09:18:21;;;;;;;5.30;1.90;;;21.50;65.10;;;25.53;41.55;100414.88;5067013;28;20201;-64
2022/10/24 09:20:51;;;;;;;4.40;2.20;;;21.80;63.60;;;26.19;41.70;100407.06;5062782;28;20221;-65
2022/10/24 09:23:22;;;;;;;4.47;1.83;;;22.30;63.70;;;26.90;39.79;100405.44;5054307;28;20243;-64
2022/10/24 09:25:54;;;;;;;7.40;2.17;;;22.80;60.80;;;27.16;38.28;100415.63;5062438;28;20197;-64
2022/10/24 09:28:23;;;;;;;4.20;1.80;;;23.30;58.50;;;27.32;38.32;100424.31;5069992;28;20698;-65
2022/10/24 09:30:51;;;;;;;2.20;1.90;;;23.70;58.10;;;27.30;37.80;100415.69;5064386;28;20240;-66
2022/10/24 09:33:28;;;;;;;5.93;2.77;;;23.90;56.50;;;27.22;37.99;100429.88;5055272;28;20198;-64
2022/10/24 09:35:59;;;;;;;5.73;2.00;;;24.10;56.50;;;26.75;38.75;100426.16;5058816;28;20205;-66
2022/10/24 09:38:32;;;;;;;4.87;1.90;;;24.00;55.90;;;26.60;38.65;100418.19;5063454;28;20630;-64
2022/10/24 09:41:04;;;;;;;4.20;1.87;;;23.90;56.10;;;26.50;39.04;100418.34;5056699;28;20732;-65
2022/10/24 09:43:47;;;;;;;3.37;2.13;;;23.80;56.20;;;26.19;39.20;100433.25;5054486;28;20197;-64
2022/10/24 09:46:17;;;;;;;6.20;1.73;;;23.70;55.70;;;25.86;39.43;100431.38;5062132;28;20185;-63
2022/10/24 09:48:52;;;;;;;3.57;1.83;;;23.40;55.20;;;25.52;39.87;100418.69;5057729;28;20202;-64
2022/10/24 09:51:27;;;;;;;6.67;1.40;;;23.20;55.80;;;25.35;40.61;100422.81;5058143;28;20236;-66
2022/10/24 09:54:25;;;;;;;5.87;2.23;;;23.10;56.40;;;25.21;40.40;100419.94;5058275;28;20436;-65
2022/10/24 09:56:57;;;;;;;4.73;1.90;;;22.90;56.80;;;25.26;41.10;100441.47;5059356;28;20193;-65
2022/10/24 09:59:43;;;;;;;6.33;1.90;;;22.90;57.40;;;25.23;40.15;100430.44;5057870;28;20197;-62
2022/10/24 10:02:20;;;;;;;4.43;2.37;;;22.80;57.00;;;25.06;40.51;100425.41;5057723;28;20286;-64
2022/10/24 10:05:18;;;;;;;3.20;1.80;;;22.60;57.20;;;24.96;41.03;100430.84;5065037;28;20201;-65
2022/10/24 10:07:49;;;;;;;7.70;2.17;;;22.60;57.20;;;24.99;40.37;100429.47;5059405;28;20213;-67
2022/10/24 10:10:33;;;;;;;2.60;1.70;;;22.50;57.00;;;24.57;41.79;100437.97;5043162;28;20652;-64
2022/10/24 10:13:23;;;;;;;5.63;2.27;;;22.30;57.40;;;24.44;41.87;100439.34;5053628;28;20725;-66
2022/10/24 10:15:54;;;;;;;2.80;1.87;;;22.20;57.80;;;24.58;41.46;100442.28;5058445;28;20239;-63
2022/10/24 10:18:28;;;;;;;5.80;1.80;;;22.20;57.90;;;24.42;41.52;100444.19;5055245;28;20277;-62
2022/10/24 10:21:09;;;;;;;3.23;1.73;;;22.10;57.90;;;24.34;42.39;100442.06;5051710;28;20225;-64
2022/10/24 10:23:40;;;;;;;3.83;1.70;;;22.10;58.20;;;24.39;42.31;100446.63;5063479;28;20613;-64
2022/10/24 10:26:21;;;;;;;2.83;1.50;;;22.10;58.20;;;24.38;41.79;100442.31;5052184;28;20189;-63